sensor_id;sensor_type;location;lat;lon;timestamp;temperature;humidity
5617;DHT22;2830;50.656;7.568;2023-07-31T00:01:21;17.90;99.90
5617;DHT22;2830;50.656;7.568;2023-07-31T00:03:47;17.90;99.90
5617;DHT22;2830;50.656;7.568;2023-07-31T00:06:14;17.90;99.90
5617;DHT22;2830;50.656;7.568;2023-07-31T00:08:41;17.90;99.90
5617;DHT22;2830;50.656;7.568;2023-07-31T00:11:08;17.80;99.90
5617;DHT22;2830;50.656;7.568;2023-07-31T00:13:34;17.80;99.90
5617;DHT22;2830;50.656;7.568;2023-07-31T00:16:01;17.70;99.90
5617;DHT22;2830;50.656;7.568;2023-07-31T00:18:28;17.70;99.90
5617;DHT22;2830;50.656;7.568;2023-07-31T00:20:55;17.70;99.90
5617;DHT22;2830;50.656;7.568;2023-07-31T00:23:21;17.70;99.90
5617;DHT22;2830;50.656;7.568;2023-07-31T00:25:48;17.80;99.90
5617;DHT22;2830;50.656;7.568;2023-07-31T00:28:15;17.70;99.90
5617;DHT22;2830;50.656;7.568;2023-07-31T00:30:42;17.70;99.90
5617;DHT22;2830;50.656;7.568;2023-07-31T00:33:08;17.70;99.90
5617;DHT22;2830;50.656;7.568;2023-07-31T00:35:35;17.70;99.90
5617;DHT22;2830;50.656;7.568;2023-07-31T00:38:02;17.70;99.90
5617;DHT22;2830;50.656;7.568;2023-07-31T00:40:28;17.80;99.90
5617;DHT22;2830;50.656;7.568;2023-07-31T00:42:55;17.80;99.90
5617;DHT22;2830;50.656;7.568;2023-07-31T00:45:23;17.70;99.90
5617;DHT22;2830;50.656;7.568;2023-07-31T00:47:50;17.70;99.90
5617;DHT22;2830;50.656;7.568;2023-07-31T00:50:17;17.70;99.90
5617;DHT22;2830;50.656;7.568;2023-07-31T00:52:44;17.80;99.90
5617;DHT22;2830;50.656;7.568;2023-07-31T00:55:11;17.70;99.90
5617;DHT22;2830;50.656;7.568;2023-07-31T00:57:38;17.70;99.90
5617;DHT22;2830;50.656;7.568;2023-07-31T01:00:06;17.70;99.90
5617;DHT22;2830;50.656;7.568;2023-07-31T01:02:34;17.60;99.90
5617;DHT22;2830;50.656;7.568;2023-07-31T01:05:02;17.60;99.90
5617;DHT22;2830;50.656;7.568;2023-07-31T01:07:46;17.60;99.90
5617;DHT22;2830;50.656;7.568;2023-07-31T01:10:20;17.60;99.90
5617;DHT22;2830;50.656;7.568;2023-07-31T01:12:48;17.50;99.90
5617;DHT22;2830;50.656;7.568;2023-07-31T01:15:17;17.50;99.90
5617;DHT22;2830;50.656;7.568;2023-07-31T01:17:44;17.40;99.90
5617;DHT22;2830;50.656;7.568;2023-07-31T01:20:15;17.40;99.90
5617;DHT22;2830;50.656;7.568;2023-07-31T01:31:18;17.40;99.90
5617;DHT22;2830;50.656;7.568;2023-07-31T01:33:47;17.50;99.90
5617;DHT22;2830;50.656;7.568;2023-07-31T01:36:14;17.50;99.90
5617;DHT22;2830;50.656;7.568;2023-07-31T01:38:41;17.50;99.90
5617;DHT22;2830;50.656;7.568;2023-07-31T01:41:08;17.50;99.90
5617;DHT22;2830;50.656;7.568;2023-07-31T01:43:34;17.50;99.90
5617;DHT22;2830;50.656;7.568;2023-07-31T01:46:01;17.50;99.90
5617;DHT22;2830;50.656;7.568;2023-07-31T01:48:28;17.50;99.90
5617;DHT22;2830;50.656;7.568;2023-07-31T01:50:55;17.50;99.90
5617;DHT22;2830;50.656;7.568;2023-07-31T01:53:22;17.60;99.90
5617;DHT22;2830;50.656;7.568;2023-07-31T01:55:48;17.50;99.90
5617;DHT22;2830;50.656;7.568;2023-07-31T01:58:15;17.50;99.90
5617;DHT22;2830;50.656;7.568;2023-07-31T02:00:42;17.50;99.90
5617;DHT22;2830;50.656;7.568;2023-07-31T02:03:08;17.50;99.90
5617;DHT22;2830;50.656;7.568;2023-07-31T02:05:36;17.50;99.90
5617;DHT22;2830;50.656;7.568;2023-07-31T02:08:03;17.50;99.90
5617;DHT22;2830;50.656;7.568;2023-07-31T02:10:32;17.50;99.90
5617;DHT22;2830;50.656;7.568;2023-07-31T02:12:58;17.50;99.90
5617;DHT22;2830;50.656;7.568;2023-07-31T02:15:25;17.50;99.90
5617;DHT22;2830;50.656;7.568;2023-07-31T02:17:52;17.40;99.90
5617;DHT22;2830;50.656;7.568;2023-07-31T02:20:19;17.40;99.90
5617;DHT22;2830;50.656;7.568;2023-07-31T02:22:45;17.40;99.90
5617;DHT22;2830;50.656;7.568;2023-07-31T02:25:12;17.40;99.90
5617;DHT22;2830;50.656;7.568;2023-07-31T02:27:39;17.50;99.90
5617;DHT22;2830;50.656;7.568;2023-07-31T02:30:06;17.50;99.90
5617;DHT22;2830;50.656;7.568;2023-07-31T02:32:33;17.50;99.90
5617;DHT22;2830;50.656;7.568;2023-07-31T02:34:59;17.50;99.90
5617;DHT22;2830;50.656;7.568;2023-07-31T02:37:26;17.50;99.90
5617;DHT22;2830;50.656;7.568;2023-07-31T02:39:55;17.50;99.90
5617;DHT22;2830;50.656;7.568;2023-07-31T02:42:21;17.50;99.90
5617;DHT22;2830;50.656;7.568;2023-07-31T02:44:48;17.50;99.90
5617;DHT22;2830;50.656;7.568;2023-07-31T02:47:15;17.50;99.90
5617;DHT22;2830;50.656;7.568;2023-07-31T02:49:42;17.50;99.90
5617;DHT22;2830;50.656;7.568;2023-07-31T02:52:09;17.50;99.90
5617;DHT22;2830;50.656;7.568;2023-07-31T02:54:36;17.50;99.90
5617;DHT22;2830;50.656;7.568;2023-07-31T02:57:05;17.50;99.90
5617;DHT22;2830;50.656;7.568;2023-07-31T02:59:31;17.60;99.90
5617;DHT22;2830;50.656;7.568;2023-07-31T03:01:58;17.50;99.90
5617;DHT22;2830;50.656;7.568;2023-07-31T03:04:25;17.50;99.90
5617;DHT22;2830;50.656;7.568;2023-07-31T03:06:51;17.50;99.90
5617;DHT22;2830;50.656;7.568;2023-07-31T03:09:18;17.50;99.90
5617;DHT22;2830;50.656;7.568;2023-07-31T03:11:45;17.50;99.90
5617;DHT22;2830;50.656;7.568;2023-07-31T03:14:11;17.40;99.90
5617;DHT22;2830;50.656;7.568;2023-07-31T03:16:38;17.40;99.90
5617;DHT22;2830;50.656;7.568;2023-07-31T03:19:05;17.40;99.90
5617;DHT22;2830;50.656;7.568;2023-07-31T03:21:32;17.30;99.90
5617;DHT22;2830;50.656;7.568;2023-07-31T03:23:59;17.30;99.90
5617;DHT22;2830;50.656;7.568;2023-07-31T03:26:25;17.30;99.90
5617;DHT22;2830;50.656;7.568;2023-07-31T03:28:52;17.30;99.90
5617;DHT22;2830;50.656;7.568;2023-07-31T03:31:19;17.40;99.90
5617;DHT22;2830;50.656;7.568;2023-07-31T03:33:46;17.30;99.90
5617;DHT22;2830;50.656;7.568;2023-07-31T03:36:12;17.40;99.90
5617;DHT22;2830;50.656;7.568;2023-07-31T03:38:39;17.40;99.90
5617;DHT22;2830;50.656;7.568;2023-07-31T03:41:06;17.40;99.90
5617;DHT22;2830;50.656;7.568;2023-07-31T03:43:33;17.30;99.90
5617;DHT22;2830;50.656;7.568;2023-07-31T03:46:02;17.30;99.90
5617;DHT22;2830;50.656;7.568;2023-07-31T03:48:29;17.30;99.90
5617;DHT22;2830;50.656;7.568;2023-07-31T03:50:56;17.30;99.90
5617;DHT22;2830;50.656;7.568;2023-07-31T03:53:23;17.30;99.90
5617;DHT22;2830;50.656;7.568;2023-07-31T03:55:49;17.30;99.90
5617;DHT22;2830;50.656;7.568;2023-07-31T03:58:16;17.30;99.90
5617;DHT22;2830;50.656;7.568;2023-07-31T04:00:43;17.30;99.90
5617;DHT22;2830;50.656;7.568;2023-07-31T04:03:09;17.40;99.90
5617;DHT22;2830;50.656;7.568;2023-07-31T04:05:38;17.30;99.90
5617;DHT22;2830;50.656;7.568;2023-07-31T04:08:05;17.30;99.90
5617;DHT22;2830;50.656;7.568;2023-07-31T04:10:32;17.30;99.90
5617;DHT22;2830;50.656;7.568;2023-07-31T04:13:00;17.20;99.90
5617;DHT22;2830;50.656;7.568;2023-07-31T04:15:27;17.20;99.90
5617;DHT22;2830;50.656;7.568;2023-07-31T04:17:53;17.20;99.90
5617;DHT22;2830;50.656;7.568;2023-07-31T04:20:20;17.10;99.90
5617;DHT22;2830;50.656;7.568;2023-07-31T04:22:48;17.10;99.90
5617;DHT22;2830;50.656;7.568;2023-07-31T04:25:14;17.20;99.90
5617;DHT22;2830;50.656;7.568;2023-07-31T04:27:41;17.20;99.90
5617;DHT22;2830;50.656;7.568;2023-07-31T04:30:08;17.30;99.90
5617;DHT22;2830;50.656;7.568;2023-07-31T04:32:35;17.20;99.90
5617;DHT22;2830;50.656;7.568;2023-07-31T04:35:02;17.20;99.90
5617;DHT22;2830;50.656;7.568;2023-07-31T04:37:29;17.30;99.90
5617;DHT22;2830;50.656;7.568;2023-07-31T04:39:56;17.30;99.90
5617;DHT22;2830;50.656;7.568;2023-07-31T04:42:23;17.30;99.90
5617;DHT22;2830;50.656;7.568;2023-07-31T04:44:50;17.30;99.90
5617;DHT22;2830;50.656;7.568;2023-07-31T04:47:16;17.30;99.90
5617;DHT22;2830;50.656;7.568;2023-07-31T04:49:43;17.30;99.90
5617;DHT22;2830;50.656;7.568;2023-07-31T04:52:10;17.30;99.90
5617;DHT22;2830;50.656;7.568;2023-07-31T04:54:36;17.40;99.90
5617;DHT22;2830;50.656;7.568;2023-07-31T04:57:03;17.50;99.90
5617;DHT22;2830;50.656;7.568;2023-07-31T04:59:30;17.40;99.90
5617;DHT22;2830;50.656;7.568;2023-07-31T05:01:58;17.40;99.90
5617;DHT22;2830;50.656;7.568;2023-07-31T05:04:25;17.40;99.90
5617;DHT22;2830;50.656;7.568;2023-07-31T05:06:51;17.50;99.90
5617;DHT22;2830;50.656;7.568;2023-07-31T05:09:18;17.50;99.90
5617;DHT22;2830;50.656;7.568;2023-07-31T05:11:45;17.40;99.90
5617;DHT22;2830;50.656;7.568;2023-07-31T05:14:11;17.40;99.90
5617;DHT22;2830;50.656;7.568;2023-07-31T05:16:38;17.50;99.90
5617;DHT22;2830;50.656;7.568;2023-07-31T05:19:05;17.50;99.90
5617;DHT22;2830;50.656;7.568;2023-07-31T05:21:32;17.50;99.90
5617;DHT22;2830;50.656;7.568;2023-07-31T05:23:59;17.50;99.90
5617;DHT22;2830;50.656;7.568;2023-07-31T05:26:26;17.50;99.90
5617;DHT22;2830;50.656;7.568;2023-07-31T05:28:53;17.40;99.90
5617;DHT22;2830;50.656;7.568;2023-07-31T05:31:20;17.40;99.90
5617;DHT22;2830;50.656;7.568;2023-07-31T05:33:48;17.40;99.90
5617;DHT22;2830;50.656;7.568;2023-07-31T05:36:17;17.40;99.90
5617;DHT22;2830;50.656;7.568;2023-07-31T05:38:44;17.40;99.90
5617;DHT22;2830;50.656;7.568;2023-07-31T05:41:12;17.40;99.90
5617;DHT22;2830;50.656;7.568;2023-07-31T05:43:39;17.40;99.90
5617;DHT22;2830;50.656;7.568;2023-07-31T05:46:06;17.50;99.90
5617;DHT22;2830;50.656;7.568;2023-07-31T05:48:33;17.60;99.90
5617;DHT22;2830;50.656;7.568;2023-07-31T05:51:04;17.70;99.90
5617;DHT22;2830;50.656;7.568;2023-07-31T05:53:31;17.80;99.90
5617;DHT22;2830;50.656;7.568;2023-07-31T05:55:58;17.80;99.90
5617;DHT22;2830;50.656;7.568;2023-07-31T05:58:24;17.70;99.90
5617;DHT22;2830;50.656;7.568;2023-07-31T06:00:51;17.70;99.90
5617;DHT22;2830;50.656;7.568;2023-07-31T06:03:18;17.60;99.90
5617;DHT22;2830;50.656;7.568;2023-07-31T06:05:45;17.50;99.90
5617;DHT22;2830;50.656;7.568;2023-07-31T06:08:11;17.50;99.90
5617;DHT22;2830;50.656;7.568;2023-07-31T06:10:38;17.40;99.90
5617;DHT22;2830;50.656;7.568;2023-07-31T06:13:05;17.50;99.90
5617;DHT22;2830;50.656;7.568;2023-07-31T06:15:31;17.50;99.90
5617;DHT22;2830;50.656;7.568;2023-07-31T06:17:58;17.60;99.90
5617;DHT22;2830;50.656;7.568;2023-07-31T06:20:28;17.60;99.90
5617;DHT22;2830;50.656;7.568;2023-07-31T06:22:55;17.70;99.90
5617;DHT22;2830;50.656;7.568;2023-07-31T06:25:22;17.70;99.90
5617;DHT22;2830;50.656;7.568;2023-07-31T06:27:48;17.70;99.90
5617;DHT22;2830;50.656;7.568;2023-07-31T06:30:15;17.80;99.90
5617;DHT22;2830;50.656;7.568;2023-07-31T06:32:42;17.90;99.90
5617;DHT22;2830;50.656;7.568;2023-07-31T06:35:09;17.90;99.90
5617;DHT22;2830;50.656;7.568;2023-07-31T06:37:36;17.90;99.90
5617;DHT22;2830;50.656;7.568;2023-07-31T06:40:04;17.80;99.90
5617;DHT22;2830;50.656;7.568;2023-07-31T06:42:32;17.80;99.90
5617;DHT22;2830;50.656;7.568;2023-07-31T06:44:58;17.70;99.90
5617;DHT22;2830;50.656;7.568;2023-07-31T06:47:25;17.60;99.90
5617;DHT22;2830;50.656;7.568;2023-07-31T06:49:52;17.50;99.90
5617;DHT22;2830;50.656;7.568;2023-07-31T06:52:19;17.40;99.90
5617;DHT22;2830;50.656;7.568;2023-07-31T06:55:01;17.30;99.90
5617;DHT22;2830;50.656;7.568;2023-07-31T06:57:28;17.30;99.90
5617;DHT22;2830;50.656;7.568;2023-07-31T06:59:55;17.20;99.90
5617;DHT22;2830;50.656;7.568;2023-07-31T07:02:21;17.10;99.90
5617;DHT22;2830;50.656;7.568;2023-07-31T07:04:49;17.20;99.90
5617;DHT22;2830;50.656;7.568;2023-07-31T07:07:16;17.20;99.90
5617;DHT22;2830;50.656;7.568;2023-07-31T07:09:43;17.30;99.90
5617;DHT22;2830;50.656;7.568;2023-07-31T07:12:09;17.20;99.90
5617;DHT22;2830;50.656;7.568;2023-07-31T07:14:36;17.30;99.90
5617;DHT22;2830;50.656;7.568;2023-07-31T07:17:03;17.30;99.90
5617;DHT22;2830;50.656;7.568;2023-07-31T07:19:30;17.40;99.90
5617;DHT22;2830;50.656;7.568;2023-07-31T07:21:57;17.50;99.90
5617;DHT22;2830;50.656;7.568;2023-07-31T07:24:26;17.50;99.90
5617;DHT22;2830;50.656;7.568;2023-07-31T07:26:53;17.60;99.90
5617;DHT22;2830;50.656;7.568;2023-07-31T07:29:19;17.70;99.90
5617;DHT22;2830;50.656;7.568;2023-07-31T07:31:46;17.80;99.90
5617;DHT22;2830;50.656;7.568;2023-07-31T07:34:13;18.10;99.90
5617;DHT22;2830;50.656;7.568;2023-07-31T07:36:39;18.30;99.90
5617;DHT22;2830;50.656;7.568;2023-07-31T07:39:08;18.70;99.90
5617;DHT22;2830;50.656;7.568;2023-07-31T07:41:34;19.10;99.90
5617;DHT22;2830;50.656;7.568;2023-07-31T07:44:01;19.10;99.90
5617;DHT22;2830;50.656;7.568;2023-07-31T07:46:28;19.10;99.90
5617;DHT22;2830;50.656;7.568;2023-07-31T07:48:54;19.50;99.90
5617;DHT22;2830;50.656;7.568;2023-07-31T07:51:21;19.80;99.90
5617;DHT22;2830;50.656;7.568;2023-07-31T07:53:48;20.00;99.90
5617;DHT22;2830;50.656;7.568;2023-07-31T07:56:15;20.00;99.90
5617;DHT22;2830;50.656;7.568;2023-07-31T07:58:41;20.00;99.90
5617;DHT22;2830;50.656;7.568;2023-07-31T08:01:08;19.90;99.90
5617;DHT22;2830;50.656;7.568;2023-07-31T08:03:35;19.70;99.90
5617;DHT22;2830;50.656;7.568;2023-07-31T08:06:02;19.40;99.90
5617;DHT22;2830;50.656;7.568;2023-07-31T08:08:28;19.10;99.90
5617;DHT22;2830;50.656;7.568;2023-07-31T08:10:55;18.90;99.90
5617;DHT22;2830;50.656;7.568;2023-07-31T08:13:22;18.70;99.90
5617;DHT22;2830;50.656;7.568;2023-07-31T08:15:49;18.60;99.90
5617;DHT22;2830;50.656;7.568;2023-07-31T08:18:15;18.50;99.90
5617;DHT22;2830;50.656;7.568;2023-07-31T08:20:44;18.30;99.90
5617;DHT22;2830;50.656;7.568;2023-07-31T08:23:10;18.20;99.90
5617;DHT22;2830;50.656;7.568;2023-07-31T08:25:37;18.20;99.90
5617;DHT22;2830;50.656;7.568;2023-07-31T08:28:05;18.10;99.90
5617;DHT22;2830;50.656;7.568;2023-07-31T08:30:33;18.00;99.90
5617;DHT22;2830;50.656;7.568;2023-07-31T08:33:03;17.90;99.90
5617;DHT22;2830;50.656;7.568;2023-07-31T08:35:29;17.80;99.90
5617;DHT22;2830;50.656;7.568;2023-07-31T08:37:56;17.70;99.90
5617;DHT22;2830;50.656;7.568;2023-07-31T08:40:23;17.60;99.90
5617;DHT22;2830;50.656;7.568;2023-07-31T08:42:54;17.50;99.90
5617;DHT22;2830;50.656;7.568;2023-07-31T08:45:20;17.50;99.90
5617;DHT22;2830;50.656;7.568;2023-07-31T08:47:51;17.50;99.90
5617;DHT22;2830;50.656;7.568;2023-07-31T08:50:20;17.50;99.90
5617;DHT22;2830;50.656;7.568;2023-07-31T08:52:48;17.50;99.90
5617;DHT22;2830;50.656;7.568;2023-07-31T08:55:16;17.50;99.90
5617;DHT22;2830;50.656;7.568;2023-07-31T08:57:43;17.60;99.90
5617;DHT22;2830;50.656;7.568;2023-07-31T09:00:10;17.60;99.90
5617;DHT22;2830;50.656;7.568;2023-07-31T09:02:44;17.70;99.90
5617;DHT22;2830;50.656;7.568;2023-07-31T09:05:12;17.70;99.90
5617;DHT22;2830;50.656;7.568;2023-07-31T09:07:39;17.60;99.90
5617;DHT22;2830;50.656;7.568;2023-07-31T09:10:07;17.50;99.90
5617;DHT22;2830;50.656;7.568;2023-07-31T09:12:34;17.50;99.90
5617;DHT22;2830;50.656;7.568;2023-07-31T09:15:02;17.60;99.90
5617;DHT22;2830;50.656;7.568;2023-07-31T09:17:30;17.50;99.90
5617;DHT22;2830;50.656;7.568;2023-07-31T09:19:57;17.50;99.90
5617;DHT22;2830;50.656;7.568;2023-07-31T09:22:34;17.50;99.90
5617;DHT22;2830;50.656;7.568;2023-07-31T09:25:16;17.50;99.90
5617;DHT22;2830;50.656;7.568;2023-07-31T09:27:57;17.50;99.90
5617;DHT22;2830;50.656;7.568;2023-07-31T09:30:24;17.50;99.90
5617;DHT22;2830;50.656;7.568;2023-07-31T09:33:02;17.40;99.90
5617;DHT22;2830;50.656;7.568;2023-07-31T09:35:31;17.40;99.90
5617;DHT22;2830;50.656;7.568;2023-07-31T09:38:00;17.50;99.90
5617;DHT22;2830;50.656;7.568;2023-07-31T09:40:32;17.50;99.90
5617;DHT22;2830;50.656;7.568;2023-07-31T09:43:00;17.60;99.90
5617;DHT22;2830;50.656;7.568;2023-07-31T09:45:27;17.70;99.90
5617;DHT22;2830;50.656;7.568;2023-07-31T09:48:15;17.90;99.90
5617;DHT22;2830;50.656;7.568;2023-07-31T09:50:46;18.00;99.90
5617;DHT22;2830;50.656;7.568;2023-07-31T09:53:13;18.00;99.90
5617;DHT22;2830;50.656;7.568;2023-07-31T09:55:41;17.90;99.90
5617;DHT22;2830;50.656;7.568;2023-07-31T09:58:10;18.00;99.90
5617;DHT22;2830;50.656;7.568;2023-07-31T10:00:38;18.00;99.90
5617;DHT22;2830;50.656;7.568;2023-07-31T10:03:07;18.00;99.90
5617;DHT22;2830;50.656;7.568;2023-07-31T10:05:53;18.10;99.90
5617;DHT22;2830;50.656;7.568;2023-07-31T10:08:27;18.00;99.90
5617;DHT22;2830;50.656;7.568;2023-07-31T10:10:59;18.10;99.90
5617;DHT22;2830;50.656;7.568;2023-07-31T10:13:28;18.10;99.90
5617;DHT22;2830;50.656;7.568;2023-07-31T10:15:58;18.30;99.90
5617;DHT22;2830;50.656;7.568;2023-07-31T10:18:26;18.30;99.90
5617;DHT22;2830;50.656;7.568;2023-07-31T10:20:54;18.20;99.90
5617;DHT22;2830;50.656;7.568;2023-07-31T10:23:22;18.20;99.90
5617;DHT22;2830;50.656;7.568;2023-07-31T10:25:51;18.10;99.90
5617;DHT22;2830;50.656;7.568;2023-07-31T10:28:20;18.20;99.90
5617;DHT22;2830;50.656;7.568;2023-07-31T10:30:47;18.20;99.90
5617;DHT22;2830;50.656;7.568;2023-07-31T10:33:16;18.20;99.90
5617;DHT22;2830;50.656;7.568;2023-07-31T10:35:44;18.30;99.90
5617;DHT22;2830;50.656;7.568;2023-07-31T10:38:11;18.30;99.90
5617;DHT22;2830;50.656;7.568;2023-07-31T10:40:39;18.30;99.90
5617;DHT22;2830;50.656;7.568;2023-07-31T10:43:06;18.20;99.90
5617;DHT22;2830;50.656;7.568;2023-07-31T10:45:42;18.20;99.90
5617;DHT22;2830;50.656;7.568;2023-07-31T10:48:16;18.20;99.90
5617;DHT22;2830;50.656;7.568;2023-07-31T10:50:51;18.30;99.90
5617;DHT22;2830;50.656;7.568;2023-07-31T10:53:32;18.30;99.90
5617;DHT22;2830;50.656;7.568;2023-07-31T10:56:01;18.40;99.90
5617;DHT22;2830;50.656;7.568;2023-07-31T10:58:28;18.40;99.90
5617;DHT22;2830;50.656;7.568;2023-07-31T11:00:59;18.50;99.90
5617;DHT22;2830;50.656;7.568;2023-07-31T11:03:40;18.60;99.90
5617;DHT22;2830;50.656;7.568;2023-07-31T11:06:08;18.70;99.90
5617;DHT22;2830;50.656;7.568;2023-07-31T11:08:43;18.80;99.90
5617;DHT22;2830;50.656;7.568;2023-07-31T11:11:11;18.80;99.90
5617;DHT22;2830;50.656;7.568;2023-07-31T11:13:46;18.90;99.90
5617;DHT22;2830;50.656;7.568;2023-07-31T11:16:21;18.90;99.90
5617;DHT22;2830;50.656;7.568;2023-07-31T11:18:49;19.00;99.90
5617;DHT22;2830;50.656;7.568;2023-07-31T11:21:22;19.10;99.90
5617;DHT22;2830;50.656;7.568;2023-07-31T11:23:51;19.20;99.90
5617;DHT22;2830;50.656;7.568;2023-07-31T11:26:19;19.30;99.90
5617;DHT22;2830;50.656;7.568;2023-07-31T11:28:48;19.30;99.90
5617;DHT22;2830;50.656;7.568;2023-07-31T11:31:15;19.30;99.90
5617;DHT22;2830;50.656;7.568;2023-07-31T11:33:42;19.40;99.90
5617;DHT22;2830;50.656;7.568;2023-07-31T11:36:20;19.40;99.90
5617;DHT22;2830;50.656;7.568;2023-07-31T11:38:47;19.30;99.90
5617;DHT22;2830;50.656;7.568;2023-07-31T11:41:15;19.30;99.90
5617;DHT22;2830;50.656;7.568;2023-07-31T11:43:43;19.40;99.90
5617;DHT22;2830;50.656;7.568;2023-07-31T11:46:10;19.40;99.90
5617;DHT22;2830;50.656;7.568;2023-07-31T11:48:37;19.30;99.90
5617;DHT22;2830;50.656;7.568;2023-07-31T11:51:06;19.30;99.90
5617;DHT22;2830;50.656;7.568;2023-07-31T11:53:47;19.40;99.90
5617;DHT22;2830;50.656;7.568;2023-07-31T11:56:17;19.60;99.90
5617;DHT22;2830;50.656;7.568;2023-07-31T11:58:49;19.90;99.90
5617;DHT22;2830;50.656;7.568;2023-07-31T12:01:19;20.00;99.90
5617;DHT22;2830;50.656;7.568;2023-07-31T12:03:47;20.00;99.90
5617;DHT22;2830;50.656;7.568;2023-07-31T12:06:15;20.00;99.90
5617;DHT22;2830;50.656;7.568;2023-07-31T12:08:41;20.10;99.90
5617;DHT22;2830;50.656;7.568;2023-07-31T12:11:09;20.10;99.90
5617;DHT22;2830;50.656;7.568;2023-07-31T12:13:37;20.10;99.90
5617;DHT22;2830;50.656;7.568;2023-07-31T12:16:04;20.00;99.90
5617;DHT22;2830;50.656;7.568;2023-07-31T12:18:38;19.90;99.90
5617;DHT22;2830;50.656;7.568;2023-07-31T12:21:07;19.80;99.90
5617;DHT22;2830;50.656;7.568;2023-07-31T12:23:36;19.80;99.90
5617;DHT22;2830;50.656;7.568;2023-07-31T12:26:07;19.70;99.90
5617;DHT22;2830;50.656;7.568;2023-07-31T12:28:45;20.00;99.90
5617;DHT22;2830;50.656;7.568;2023-07-31T12:31:15;20.60;99.90
5617;DHT22;2830;50.656;7.568;2023-07-31T12:33:44;20.90;99.90
5617;DHT22;2830;50.656;7.568;2023-07-31T12:36:18;21.10;99.90
5617;DHT22;2830;50.656;7.568;2023-07-31T12:38:45;21.60;99.90
5617;DHT22;2830;50.656;7.568;2023-07-31T12:41:12;22.10;99.90
5617;DHT22;2830;50.656;7.568;2023-07-31T12:43:41;22.50;99.90
5617;DHT22;2830;50.656;7.568;2023-07-31T12:46:08;22.50;99.90
5617;DHT22;2830;50.656;7.568;2023-07-31T12:48:37;22.30;99.90
5617;DHT22;2830;50.656;7.568;2023-07-31T12:51:04;22.30;99.90
5617;DHT22;2830;50.656;7.568;2023-07-31T12:53:31;22.20;99.90
5617;DHT22;2830;50.656;7.568;2023-07-31T12:55:58;21.90;99.90
5617;DHT22;2830;50.656;7.568;2023-07-31T12:58:25;21.70;99.90
5617;DHT22;2830;50.656;7.568;2023-07-31T13:00:52;21.40;99.90
5617;DHT22;2830;50.656;7.568;2023-07-31T13:03:18;21.20;99.90
5617;DHT22;2830;50.656;7.568;2023-07-31T13:05:45;20.90;99.90
5617;DHT22;2830;50.656;7.568;2023-07-31T13:08:12;20.90;99.90
5617;DHT22;2830;50.656;7.568;2023-07-31T13:10:39;20.80;99.90
5617;DHT22;2830;50.656;7.568;2023-07-31T13:13:05;20.80;99.90
5617;DHT22;2830;50.656;7.568;2023-07-31T13:15:32;20.80;99.90
5617;DHT22;2830;50.656;7.568;2023-07-31T13:17:59;20.60;99.90
5617;DHT22;2830;50.656;7.568;2023-07-31T13:20:26;20.60;99.90
5617;DHT22;2830;50.656;7.568;2023-07-31T13:22:53;20.50;99.90
5617;DHT22;2830;50.656;7.568;2023-07-31T13:25:20;20.50;99.90
5617;DHT22;2830;50.656;7.568;2023-07-31T13:27:46;20.50;99.90
5617;DHT22;2830;50.656;7.568;2023-07-31T13:30:13;20.30;99.90
5617;DHT22;2830;50.656;7.568;2023-07-31T13:32:40;20.30;99.90
5617;DHT22;2830;50.656;7.568;2023-07-31T13:35:07;20.30;99.90
5617;DHT22;2830;50.656;7.568;2023-07-31T13:37:34;20.20;99.90
5617;DHT22;2830;50.656;7.568;2023-07-31T13:40:01;20.20;99.90
5617;DHT22;2830;50.656;7.568;2023-07-31T13:42:31;20.30;99.90
5617;DHT22;2830;50.656;7.568;2023-07-31T13:44:58;20.30;99.90
5617;DHT22;2830;50.656;7.568;2023-07-31T13:47:25;20.30;99.90
5617;DHT22;2830;50.656;7.568;2023-07-31T13:49:51;20.30;99.90
5617;DHT22;2830;50.656;7.568;2023-07-31T13:52:18;20.30;99.90
5617;DHT22;2830;50.656;7.568;2023-07-31T13:54:47;20.20;99.90
5617;DHT22;2830;50.656;7.568;2023-07-31T13:57:13;20.30;99.90
5617;DHT22;2830;50.656;7.568;2023-07-31T13:59:40;20.40;99.90
5617;DHT22;2830;50.656;7.568;2023-07-31T14:02:07;20.70;99.90
5617;DHT22;2830;50.656;7.568;2023-07-31T14:04:34;21.00;99.90
5617;DHT22;2830;50.656;7.568;2023-07-31T14:07:00;21.30;99.90
5617;DHT22;2830;50.656;7.568;2023-07-31T14:09:27;21.40;99.90
5617;DHT22;2830;50.656;7.568;2023-07-31T14:11:55;21.30;99.90
5617;DHT22;2830;50.656;7.568;2023-07-31T14:14:22;21.40;99.90
5617;DHT22;2830;50.656;7.568;2023-07-31T14:16:48;21.50;99.90
5617;DHT22;2830;50.656;7.568;2023-07-31T14:19:15;21.60;99.90
5617;DHT22;2830;50.656;7.568;2023-07-31T14:21:42;21.60;99.90
5617;DHT22;2830;50.656;7.568;2023-07-31T14:24:19;21.80;99.90
5617;DHT22;2830;50.656;7.568;2023-07-31T14:26:46;21.70;99.90
5617;DHT22;2830;50.656;7.568;2023-07-31T14:29:13;21.50;99.90
5617;DHT22;2830;50.656;7.568;2023-07-31T14:31:39;21.20;99.90
5617;DHT22;2830;50.656;7.568;2023-07-31T14:34:06;21.30;99.90
5617;DHT22;2830;50.656;7.568;2023-07-31T14:36:33;21.30;99.90
5617;DHT22;2830;50.656;7.568;2023-07-31T14:38:59;21.20;99.90
5617;DHT22;2830;50.656;7.568;2023-07-31T14:41:26;21.20;99.90
5617;DHT22;2830;50.656;7.568;2023-07-31T14:43:53;21.00;99.90
5617;DHT22;2830;50.656;7.568;2023-07-31T14:46:19;20.80;99.90
5617;DHT22;2830;50.656;7.568;2023-07-31T14:48:46;20.80;99.90
5617;DHT22;2830;50.656;7.568;2023-07-31T14:51:13;20.60;99.90
5617;DHT22;2830;50.656;7.568;2023-07-31T14:53:41;20.40;99.90
5617;DHT22;2830;50.656;7.568;2023-07-31T14:56:07;20.30;99.90
5617;DHT22;2830;50.656;7.568;2023-07-31T14:58:34;20.20;99.90
5617;DHT22;2830;50.656;7.568;2023-07-31T15:01:01;20.10;99.90
5617;DHT22;2830;50.656;7.568;2023-07-31T15:03:28;20.10;99.90
5617;DHT22;2830;50.656;7.568;2023-07-31T15:05:55;20.10;99.90
5617;DHT22;2830;50.656;7.568;2023-07-31T15:08:22;19.90;99.90
5617;DHT22;2830;50.656;7.568;2023-07-31T15:10:49;19.90;99.90
5617;DHT22;2830;50.656;7.568;2023-07-31T15:13:15;19.80;99.90
5617;DHT22;2830;50.656;7.568;2023-07-31T15:15:42;19.70;99.90
5617;DHT22;2830;50.656;7.568;2023-07-31T15:18:09;19.60;99.90
5617;DHT22;2830;50.656;7.568;2023-07-31T15:20:36;19.60;99.90
5617;DHT22;2830;50.656;7.568;2023-07-31T15:23:02;19.50;99.90
5617;DHT22;2830;50.656;7.568;2023-07-31T15:25:29;19.50;99.90
5617;DHT22;2830;50.656;7.568;2023-07-31T15:27:56;19.50;99.90
5617;DHT22;2830;50.656;7.568;2023-07-31T15:30:24;19.50;99.90
5617;DHT22;2830;50.656;7.568;2023-07-31T15:32:51;19.50;99.90
5617;DHT22;2830;50.656;7.568;2023-07-31T15:35:18;19.40;99.90
5617;DHT22;2830;50.656;7.568;2023-07-31T15:37:48;19.40;99.90
5617;DHT22;2830;50.656;7.568;2023-07-31T15:40:14;19.40;99.90
5617;DHT22;2830;50.656;7.568;2023-07-31T15:42:41;19.30;99.90
5617;DHT22;2830;50.656;7.568;2023-07-31T15:45:09;19.40;99.90
5617;DHT22;2830;50.656;7.568;2023-07-31T15:47:37;19.40;99.90
5617;DHT22;2830;50.656;7.568;2023-07-31T15:50:04;19.40;99.90
5617;DHT22;2830;50.656;7.568;2023-07-31T15:52:31;19.40;99.90
5617;DHT22;2830;50.656;7.568;2023-07-31T15:54:58;19.40;99.90
5617;DHT22;2830;50.656;7.568;2023-07-31T15:57:24;19.40;99.90
5617;DHT22;2830;50.656;7.568;2023-07-31T15:59:54;19.40;99.90
5617;DHT22;2830;50.656;7.568;2023-07-31T16:02:21;19.40;99.90
5617;DHT22;2830;50.656;7.568;2023-07-31T16:04:48;19.50;99.90
5617;DHT22;2830;50.656;7.568;2023-07-31T16:07:14;19.50;99.90
5617;DHT22;2830;50.656;7.568;2023-07-31T16:09:41;19.50;99.90
5617;DHT22;2830;50.656;7.568;2023-07-31T16:12:08;19.50;99.90
5617;DHT22;2830;50.656;7.568;2023-07-31T16:14:36;19.40;99.90